createdAt,value
2018-08-21T00:00:48.823Z,53.24
2018-08-21T00:01:57.849Z,53.24
2018-08-21T00:03:07.663Z,53.15
2018-08-21T00:04:17.338Z,52.47
2018-08-21T00:05:26.893Z,52.56
2018-08-21T00:06:36.076Z,52.66
2018-08-21T00:07:45.358Z,53.24
2018-08-21T00:08:54.654Z,53.24
2018-08-21T00:10:04.483Z,52.66
2018-08-21T00:11:13.786Z,53.15
2018-08-21T00:12:22.901Z,52.66
2018-08-21T00:13:32.223Z,52.95
2018-08-21T00:14:41.851Z,53.05
2018-08-21T00:15:50.913Z,52.56
2018-08-21T00:17:00.161Z,53.15
2018-08-21T00:18:09.278Z,52.56
2018-08-21T00:19:18.334Z,53.15
2018-08-21T00:20:27.457Z,52.76
2018-08-21T00:21:37.275Z,52.95
2018-08-21T00:22:46.622Z,52.56
2018-08-21T00:23:56.062Z,52.56
2018-08-21T00:25:04.799Z,53.15
2018-08-21T00:26:14.389Z,52.56
2018-08-21T00:27:23.827Z,53.24
2018-08-21T00:28:33.806Z,52.86
2018-08-21T00:29:43.393Z,52.56
2018-08-21T00:30:52.756Z,53.24
2018-08-21T00:32:02.227Z,53.73
2018-08-21T00:33:12.025Z,53.73
2018-08-21T00:34:21.304Z,52.86
2018-08-21T00:35:30.372Z,53.63
2018-08-21T00:36:39.828Z,53.73
2018-08-21T00:37:49.331Z,53.73
2018-08-21T00:38:58.345Z,52.76
2018-08-21T00:40:07.340Z,52.86
2018-08-21T00:41:17.193Z,53.53
2018-08-21T00:42:26.581Z,52.86
2018-08-21T00:43:36.399Z,53.24
2018-08-21T00:44:45.743Z,53.63
2018-08-21T00:45:55.289Z,53.53
2018-08-21T00:47:04.622Z,53.63
2018-08-21T00:48:14.027Z,52.86
2018-08-21T00:49:23.347Z,53.83
2018-08-21T00:50:32.430Z,52.76
2018-08-21T00:51:41.718Z,53.63
2018-08-21T00:52:51.086Z,52.95
2018-08-21T00:54:00.366Z,53.24
2018-08-21T00:55:10.489Z,53.34
2018-08-21T00:56:19.805Z,53.73
2018-08-21T00:57:29.370Z,53.24
2018-08-21T00:58:38.460Z,53.24
2018-08-21T00:59:47.785Z,53.24
2018-08-21T01:00:56.658Z,53.24
2018-08-21T01:02:06.508Z,53.73
2018-08-21T01:03:16.034Z,53.15
2018-08-21T01:04:25.162Z,53.05
2018-08-21T01:05:35.053Z,53.53
2018-08-21T01:06:44.879Z,53.24
2018-08-21T01:07:53.957Z,52.66
2018-08-21T01:09:03.591Z,53.24
2018-08-21T01:10:13.516Z,53.53
2018-08-21T01:11:22.856Z,53.24
2018-08-21T01:12:32.464Z,52.66
2018-08-21T01:13:41.833Z,52.95
2018-08-21T01:14:51.476Z,52.66
2018-08-21T01:16:00.854Z,52.47
2018-08-21T01:17:10.843Z,52.76
2018-08-21T01:18:20.521Z,52.66
2018-08-21T01:19:29.877Z,53.15
2018-08-21T01:20:39.559Z,52.76
2018-08-21T01:21:49.044Z,52.95
2018-08-21T01:22:58.332Z,52.76
2018-08-21T01:24:07.652Z,52.76
2018-08-21T01:25:16.508Z,53.15
2018-08-21T01:26:25.849Z,52.56
2018-08-21T01:27:34.957Z,53.15
2018-08-21T01:28:44.938Z,53.15
2018-08-21T01:29:54.405Z,53.15
2018-08-21T01:31:03.685Z,52.95
2018-08-21T01:32:13.036Z,52.95
2018-08-21T01:33:22.427Z,53.24
2018-08-21T01:34:31.622Z,52.56
2018-08-21T01:35:40.452Z,52.56
2018-08-21T01:36:50.083Z,52.76
2018-08-21T01:37:59.689Z,52.95
2018-08-21T01:39:09.061Z,52.95
2018-08-21T01:40:18.697Z,52.95
2018-08-21T01:41:27.859Z,52.86
2018-08-21T01:42:37.759Z,52.56
2018-08-21T01:43:47.119Z,52.76
2018-08-21T01:44:55.945Z,53.05
2018-08-21T01:46:05.628Z,52.56
2018-08-21T01:47:15.541Z,53.05
2018-08-21T01:48:25.438Z,53.05
2018-08-21T01:49:35.101Z,53.24
2018-08-21T01:50:44.726Z,52.56
2018-08-21T01:51:54.594Z,52.95
2018-08-21T01:53:04.221Z,53.05
2018-08-21T01:54:13.617Z,52.56
2018-08-21T01:55:23.551Z,52.95
2018-08-21T01:56:32.920Z,53.34
2018-08-21T01:57:42.607Z,52.66
2018-08-21T01:58:52.768Z,53.15
2018-08-21T02:00:02.598Z,52.66
2018-08-21T02:01:11.636Z,53.15
2018-08-21T02:02:20.944Z,53.15
2018-08-21T02:03:30.871Z,52.66
2018-08-21T02:04:41.050Z,53.24
2018-08-21T02:05:50.659Z,52.76
2018-08-21T02:07:00.086Z,52.76
2018-08-21T02:08:09.410Z,52.95
2018-08-21T02:09:18.761Z,53.15
2018-08-21T02:10:28.449Z,53.15
2018-08-21T02:11:37.508Z,52.66
2018-08-21T02:12:47.150Z,53.34
2018-08-21T02:13:56.738Z,53.24
2018-08-21T02:15:06.596Z,52.76
2018-08-21T02:16:15.912Z,52.56
2018-08-21T02:17:25.463Z,52.66
2018-08-21T02:18:34.822Z,53.24
2018-08-21T02:19:43.916Z,52.56
2018-08-21T02:20:52.963Z,53.34
2018-08-21T02:22:02.434Z,53.73
2018-08-21T02:23:11.997Z,52.66
2018-08-21T02:24:21.312Z,53.73
2018-08-21T02:25:30.917Z,53.24
2018-08-21T02:26:39.680Z,53.34
2018-08-21T02:27:49.302Z,53.63
2018-08-21T02:28:58.319Z,52.76
2018-08-21T02:30:07.853Z,53.24
2018-08-21T02:31:17.480Z,52.86
2018-08-21T02:32:27.069Z,52.86
2018-08-21T02:33:36.338Z,52.66
2018-08-21T02:34:45.942Z,53.73
2018-08-21T02:35:55.554Z,53.63
2018-08-21T02:37:05.091Z,53.63
2018-08-21T02:38:14.138Z,53.73
2018-08-21T02:39:23.674Z,52.86
2018-08-21T02:40:33.008Z,52.66
2018-08-21T02:41:42.773Z,52.86
2018-08-21T02:42:52.667Z,53.63
2018-08-21T02:44:02.085Z,53.73
2018-08-21T02:45:10.933Z,53.34
2018-08-21T02:46:20.285Z,53.73
2018-08-21T02:47:30.078Z,52.76
2018-08-21T02:48:39.652Z,53.24
2018-08-21T02:49:48.960Z,52.95
2018-08-21T02:50:58.506Z,52.76
2018-08-21T02:52:08.290Z,52.86
2018-08-21T02:53:18.150Z,53.63
2018-08-21T02:54:27.777Z,53.63
2018-08-21T02:55:37.119Z,52.76
2018-08-21T02:56:46.811Z,52.76
2018-08-21T02:57:56.460Z,52.86
2018-08-21T02:59:05.544Z,53.73
2018-08-21T03:00:14.689Z,52.76
2018-08-21T03:01:23.824Z,53.63
2018-08-21T03:02:32.944Z,53.53
2018-08-21T03:03:42.270Z,52.76
2018-08-21T03:04:51.332Z,53.63
2018-08-21T03:06:00.687Z,52.76
2018-08-21T03:07:09.939Z,52.86
2018-08-21T03:08:19.246Z,52.76
2018-08-21T03:09:28.489Z,52.76
2018-08-21T03:10:37.319Z,53.63
2018-08-21T03:11:46.663Z,53.73
2018-08-21T03:12:55.480Z,53.24
2018-08-21T03:14:04.553Z,53.73
2018-08-21T03:15:13.681Z,53.53
2018-08-21T03:16:23.234Z,52.95
2018-08-21T03:17:32.821Z,52.86
2018-08-21T03:18:42.336Z,53.53
2018-08-21T03:19:52.142Z,52.76
2018-08-21T03:21:00.958Z,52.86
2018-08-21T03:22:09.976Z,53.73
2018-08-21T03:23:19.226Z,52.76
2018-08-21T03:24:28.478Z,53.63
2018-08-21T03:25:38.021Z,52.86
2018-08-21T03:26:47.567Z,53.05
2018-08-21T03:27:56.844Z,53.44
2018-08-21T03:29:06.252Z,52.76
2018-08-21T03:30:15.881Z,52.86
2018-08-21T03:31:25.606Z,53.05
2018-08-21T03:32:34.887Z,53.53
2018-08-21T03:33:44.348Z,53.51
2018-08-21T03:34:53.631Z,52.86
2018-08-21T03:36:03.272Z,52.83
2018-08-21T03:37:12.803Z,53.02
2018-08-21T03:38:22.126Z,52.83
2018-08-21T03:39:31.467Z,52.76
2018-08-21T03:40:41.189Z,53.44
2018-08-21T03:41:50.954Z,52.64
2018-08-21T03:43:00.646Z,53.51
2018-08-21T03:44:10.283Z,53.34
2018-08-21T03:45:19.838Z,53.53
2018-08-21T03:46:29.436Z,53.22
2018-08-21T03:47:38.532Z,53.51
2018-08-21T03:48:48.704Z,53.02
2018-08-21T03:49:57.761Z,53.02
2018-08-21T03:51:07.556Z,53.53
2018-08-21T03:52:17.333Z,53.34
2018-08-21T03:53:26.927Z,53.44
2018-08-21T03:54:36.329Z,53.05
2018-08-21T03:55:45.415Z,52.83
2018-08-21T03:56:54.811Z,53.24
2018-08-21T03:58:04.681Z,53.05
2018-08-21T03:59:14.368Z,53.51
2018-08-21T04:00:24.097Z,53.02
2018-08-21T04:01:33.161Z,52.86
2018-08-21T04:02:42.820Z,53.63
2018-08-21T04:03:51.930Z,53.61
2018-08-21T04:05:01.870Z,52.83
2018-08-21T04:06:11.971Z,52.95
2018-08-21T04:07:21.796Z,52.64
2018-08-21T04:08:30.928Z,53.41
2018-08-21T04:09:40.583Z,53.44
2018-08-21T04:10:49.957Z,53.31
2018-08-21T04:11:59.660Z,53.34
2018-08-21T04:13:09.751Z,53.31
2018-08-21T04:14:19.330Z,53.31
2018-08-21T04:15:28.904Z,52.93
2018-08-21T04:16:38.851Z,53.34
2018-08-21T04:17:48.499Z,53.51
2018-08-21T04:18:58.028Z,53.02
2018-08-21T04:20:08.185Z,53.31
2018-08-21T04:21:17.897Z,52.93
2018-08-21T04:22:27.787Z,52.73
2018-08-21T04:23:37.381Z,53.61
2018-08-21T04:24:47.179Z,53.63
2018-08-21T04:25:55.960Z,53.61
2018-08-21T04:27:05.771Z,52.83
2018-08-21T04:28:15.573Z,53.41
2018-08-21T04:29:24.927Z,53.7
2018-08-21T04:30:33.836Z,52.93
2018-08-21T04:31:43.270Z,52.83
2018-08-21T04:32:52.899Z,53.63
2018-08-21T04:34:02.330Z,52.83
2018-08-21T04:35:11.658Z,53.7
2018-08-21T04:36:21.287Z,53.61
2018-08-21T04:37:30.816Z,53.02
2018-08-21T04:38:39.929Z,52.93
2018-08-21T04:39:48.981Z,53.61
2018-08-21T04:40:58.077Z,53.61
2018-08-21T04:42:07.808Z,52.93
2018-08-21T04:43:17.297Z,53.05
2018-08-21T04:44:26.768Z,53.51
2018-08-21T04:45:35.898Z,53.22
2018-08-21T04:46:45.220Z,53.51
2018-08-21T04:47:54.587Z,52.86
2018-08-21T04:49:04.342Z,52.93
2018-08-21T04:50:13.138Z,53.12
2018-08-21T04:51:22.542Z,53.53
2018-08-21T04:52:32.381Z,53.02
2018-08-21T04:53:41.299Z,53.63
2018-08-21T04:54:50.794Z,52.76
2018-08-21T04:56:00.415Z,53.7
2018-08-21T04:57:09.864Z,52.83
2018-08-21T04:58:19.627Z,52.76
2018-08-21T04:59:29.236Z,52.66
2018-08-21T05:00:38.389Z,52.76
2018-08-21T05:01:48.013Z,53.31
2018-08-21T05:02:57.199Z,53.73
2018-08-21T05:04:06.620Z,53.24
2018-08-21T05:05:15.926Z,53.24
2018-08-21T05:06:25.493Z,52.95
2018-08-21T05:07:34.342Z,52.83
2018-08-21T05:08:43.605Z,53.24
2018-08-21T05:09:52.854Z,52.95
2018-08-21T05:11:02.075Z,53.24
2018-08-21T05:12:11.281Z,52.47
2018-08-21T05:13:21.054Z,53.31
2018-08-21T05:14:30.565Z,53.31
2018-08-21T05:15:40.665Z,52.95
2018-08-21T05:16:50.179Z,52.56
2018-08-21T05:17:59.503Z,53.12
2018-08-21T05:19:09.533Z,52.76
2018-08-21T05:20:18.998Z,52.56
2018-08-21T05:21:28.728Z,53.12
2018-08-21T05:22:38.571Z,52.56
2018-08-21T05:23:48.370Z,53.24
2018-08-21T05:24:57.639Z,53.05
2018-08-21T05:26:06.919Z,52.56
2018-08-21T05:27:16.201Z,53.15
2018-08-21T05:28:25.584Z,52.66
2018-08-21T05:29:34.903Z,52.66
2018-08-21T05:30:43.876Z,52.95
2018-08-21T05:31:53.458Z,52.47
2018-08-21T05:33:03.079Z,52.56
2018-08-21T05:34:12.920Z,52.66
2018-08-21T05:35:22.443Z,52.66
2018-08-21T05:36:31.977Z,53.05
2018-08-21T05:37:41.468Z,53.05
2018-08-21T05:38:50.794Z,53.05
2018-08-21T05:40:00.661Z,52.56
2018-08-21T05:41:10.205Z,53.15
2018-08-21T05:42:19.722Z,52.56
2018-08-21T05:43:28.973Z,52.95
2018-08-21T05:44:38.102Z,52.66
2018-08-21T05:45:47.413Z,52.76
2018-08-21T05:46:56.949Z,53.05
2018-08-21T05:48:06.260Z,52.76
2018-08-21T05:49:15.838Z,52.56
2018-08-21T05:50:24.944Z,53.05
2018-08-21T05:51:34.185Z,53.24
2018-08-21T05:52:43.596Z,52.76
2018-08-21T05:53:53.389Z,52.66
2018-08-21T05:55:02.915Z,53.24
2018-08-21T05:56:12.506Z,52.66
2018-08-21T05:57:22.011Z,52.56
2018-08-21T05:58:31.558Z,52.56
2018-08-21T05:59:41.097Z,52.66
2018-08-21T06:00:50.418Z,52.86
2018-08-21T06:01:59.752Z,52.76
2018-08-21T06:03:09.350Z,53.24
2018-08-21T06:04:18.974Z,52.86
2018-08-21T06:05:28.305Z,53.15
2018-08-21T06:06:37.535Z,53.24
2018-08-21T06:07:47.428Z,52.66
2018-08-21T06:08:57.128Z,52.76
2018-08-21T06:10:06.774Z,52.76
2018-08-21T06:11:16.600Z,52.66
2018-08-21T06:12:25.885Z,52.56
2018-08-21T06:13:34.925Z,53.05
2018-08-21T06:14:44.733Z,52.76
2018-08-21T06:15:54.015Z,53.24
2018-08-21T06:17:03.981Z,52.66
2018-08-21T06:18:14.016Z,52.86
2018-08-21T06:19:23.165Z,52.76
2018-08-21T06:20:32.606Z,52.95
2018-08-21T06:21:42.418Z,52.76
2018-08-21T06:22:52.241Z,52.76
2018-08-21T06:24:01.524Z,52.86
2018-08-21T06:25:10.904Z,53.15
2018-08-21T06:26:20.281Z,52.95
2018-08-21T06:27:29.360Z,53.15
2018-08-21T06:28:39.954Z,52.66
2018-08-21T06:29:49.004Z,53.34
2018-08-21T06:30:58.713Z,53.24
2018-08-21T06:32:08.637Z,53.73
2018-08-21T06:33:17.562Z,53.73
2018-08-21T06:34:27.033Z,53.53
2018-08-21T06:35:37.590Z,53.63
2018-08-21T06:36:47.432Z,52.66
2018-08-21T06:37:56.662Z,52.93
2018-08-21T06:39:06.109Z,53.44
2018-08-21T06:40:15.203Z,53.53
2018-08-21T06:41:24.528Z,53.05
2018-08-21T06:42:33.863Z,53.44
2018-08-21T06:43:43.780Z,53.34
2018-08-21T06:44:52.926Z,53.51
2018-08-21T06:46:02.724Z,53.53
2018-08-21T06:47:12.548Z,53.51
2018-08-21T06:48:21.646Z,53.22
2018-08-21T06:49:30.825Z,53.41
2018-08-21T06:50:40.966Z,53.41
2018-08-21T06:51:50.217Z,53.61
2018-08-21T06:52:59.299Z,53.22
2018-08-21T06:54:08.534Z,53.61
2018-08-21T06:55:18.358Z,53.22
2018-08-21T06:56:28.008Z,53.22
2018-08-21T06:57:37.034Z,53.12
2018-08-21T06:58:46.595Z,53.12
2018-08-21T06:59:55.595Z,53.22
2018-08-21T07:01:05.135Z,53.41
2018-08-21T07:02:14.912Z,53.31
2018-08-21T07:03:24.513Z,53.22
2018-08-21T07:04:34.457Z,53.22
2018-08-21T07:05:44.255Z,53.22
2018-08-21T07:06:53.798Z,53.22
2018-08-21T07:08:03.583Z,53.22
2018-08-21T07:09:12.869Z,53.24
2018-08-21T07:10:22.393Z,53.22
2018-08-21T07:11:32.235Z,53.22
2018-08-21T07:12:41.789Z,53.31
2018-08-21T07:13:51.352Z,53.12
2018-08-21T07:15:00.365Z,53.31
2018-08-21T07:16:09.717Z,53.31
2018-08-21T07:17:19.304Z,53.31
2018-08-21T07:18:28.841Z,53.22
2018-08-21T07:19:38.076Z,53.22
2018-08-21T07:20:47.671Z,53.22
2018-08-21T07:21:56.690Z,53.22
2018-08-21T07:23:06.201Z,53.31
2018-08-21T07:24:15.820Z,53.12
2018-08-21T07:25:25.115Z,53.12
2018-08-21T07:26:34.644Z,53.22
2018-08-21T07:27:44.106Z,53.12
2018-08-21T07:28:53.627Z,53.12
2018-08-21T07:30:03.234Z,53.12
2018-08-21T07:31:13.267Z,53.12
2018-08-21T07:32:23.008Z,53.31
2018-08-21T07:33:33.046Z,53.22
2018-08-21T07:34:42.340Z,53.12
2018-08-21T07:35:51.546Z,53.22
2018-08-21T07:37:01.076Z,53.31
2018-08-21T07:38:10.366Z,53.31
2018-08-21T07:39:19.435Z,53.02
2018-08-21T07:40:29.348Z,53.7
2018-08-21T07:41:39.196Z,53.12
2018-08-21T07:42:49.339Z,53.22
2018-08-21T07:43:58.433Z,53.41
2018-08-21T07:45:07.985Z,53.61
2018-08-21T07:46:18.177Z,53.31
2018-08-21T07:47:27.640Z,53.02
2018-08-21T07:48:37.217Z,53.31
2018-08-21T07:49:46.233Z,53.02
2018-08-21T07:50:55.833Z,53.31
2018-08-21T07:52:05.176Z,53.31
2018-08-21T07:53:14.270Z,53.31
2018-08-21T07:54:24.051Z,53.22
2018-08-21T07:55:33.435Z,53.22
2018-08-21T07:56:43.138Z,53.41
2018-08-21T07:57:52.470Z,53.41
2018-08-21T07:59:02.327Z,53.41
2018-08-21T08:00:12.603Z,53.22
2018-08-21T08:01:22.414Z,53.12
2018-08-21T08:02:32.053Z,53.61
2018-08-21T08:03:41.846Z,53.41
2018-08-21T08:04:50.558Z,53.12
2018-08-21T08:05:59.761Z,53.41
2018-08-21T08:07:09.184Z,53.12
2018-08-21T08:08:18.929Z,53.12
2018-08-21T08:09:27.706Z,53.22
2018-08-21T08:10:36.810Z,53.12
2018-08-21T08:11:46.075Z,53.41
2018-08-21T08:12:55.078Z,53.22
2018-08-21T08:14:04.621Z,53.51
2018-08-21T08:15:14.135Z,53.41
2018-08-21T08:16:23.187Z,53.22
2018-08-21T08:17:33.255Z,53.22
2018-08-21T08:18:42.559Z,53.51
2018-08-21T08:19:53.145Z,53.61
2018-08-21T08:21:02.725Z,53.41
2018-08-21T08:22:11.703Z,53.51
2018-08-21T08:23:20.901Z,53.41
2018-08-21T08:24:30.672Z,53.22
2018-08-21T08:25:40.185Z,53.41
2018-08-21T08:26:50.025Z,53.41
2018-08-21T08:27:59.922Z,53.41
2018-08-21T08:29:10.124Z,53.22
2018-08-21T08:30:20.032Z,53.12
2018-08-21T08:31:30.723Z,53.41
2018-08-21T08:32:39.999Z,53.41
2018-08-21T08:33:49.302Z,53.51
2018-08-21T08:34:59.256Z,53.12
2018-08-21T08:36:09.336Z,53.51
2018-08-21T08:37:18.876Z,53.41
2018-08-21T08:38:28.786Z,53.41
2018-08-21T08:39:38.270Z,53.51
2018-08-21T08:40:48.043Z,53.51
2018-08-21T08:41:58.269Z,53.12
2018-08-21T08:43:09.196Z,53.61
2018-08-21T08:44:18.787Z,53.31
2018-08-21T08:45:28.332Z,53.41
2018-08-21T08:46:37.694Z,53.31
2018-08-21T08:47:47.173Z,53.12
2018-08-21T08:48:56.651Z,53.51
2018-08-21T08:50:06.739Z,53.41
2018-08-21T08:51:16.296Z,53.31
2018-08-21T08:52:26.107Z,53.22
2018-08-21T08:53:34.983Z,53.22
2018-08-21T08:54:44.519Z,53.31
2018-08-21T08:55:54.099Z,53.22
2018-08-21T08:57:03.740Z,53.22
2018-08-21T08:58:12.794Z,53.51
2018-08-21T08:59:22.754Z,53.31
2018-08-21T09:00:32.378Z,53.31
2018-08-21T09:01:42.096Z,53.31
2018-08-21T09:02:51.554Z,53.51
2018-08-21T09:04:00.828Z,53.41
2018-08-21T09:05:10.547Z,53.51
2018-08-21T09:06:22.055Z,52.93
2018-08-21T09:07:32.378Z,53.02
2018-08-21T09:08:41.754Z,53.7
2018-08-21T09:09:52.153Z,53.22
2018-08-21T09:11:02.672Z,52.83
2018-08-21T09:12:12.032Z,53.51
2018-08-21T09:13:21.351Z,53.02
2018-08-21T09:14:31.178Z,52.93
2018-08-21T09:15:41.021Z,52.93
2018-08-21T09:16:50.354Z,52.76
2018-08-21T09:18:00.099Z,53.24
2018-08-21T09:19:10.168Z,53.24
2018-08-21T09:20:19.762Z,53.34
2018-08-21T09:21:29.077Z,53.24
2018-08-21T09:22:39.364Z,53.31
2018-08-21T09:23:48.896Z,53.15
2018-08-21T09:24:58.395Z,52.64
2018-08-21T09:26:07.579Z,53.12
2018-08-21T09:27:17.111Z,53.15
2018-08-21T09:28:27.084Z,52.76
2018-08-21T09:29:36.776Z,53.12
2018-08-21T09:30:46.704Z,52.86
2018-08-21T09:31:56.296Z,53.15
2018-08-21T09:33:05.357Z,52.66
2018-08-21T09:34:15.172Z,52.66
2018-08-21T09:35:24.472Z,53.05
2018-08-21T09:36:34.425Z,52.95
2018-08-21T09:37:43.754Z,52.86
2018-08-21T09:38:53.452Z,52.86
2018-08-21T09:40:02.978Z,52.76
2018-08-21T09:41:12.486Z,52.95
2018-08-21T09:42:22.070Z,52.95
2018-08-21T09:43:31.305Z,52.95
2018-08-21T09:44:41.384Z,52.95
2018-08-21T09:45:51.244Z,52.76
2018-08-21T09:47:01.389Z,52.86
2018-08-21T09:48:10.868Z,52.76
2018-08-21T09:49:20.661Z,52.76
2018-08-21T09:50:30.453Z,53.24
2018-08-21T09:51:39.706Z,52.95
2018-08-21T09:52:48.769Z,53.15
2018-08-21T09:53:58.132Z,52.95
2018-08-21T09:55:07.759Z,52.95
2018-08-21T09:56:17.276Z,52.76
2018-08-21T09:57:26.319Z,52.86
2018-08-21T09:58:35.978Z,52.86
2018-08-21T09:59:45.309Z,53.24
2018-08-21T10:00:55.143Z,52.95
2018-08-21T10:02:04.475Z,53.15
2018-08-21T10:03:13.725Z,53.15
2018-08-21T10:04:23.150Z,52.47
2018-08-21T10:05:32.711Z,52.66
2018-08-21T10:06:42.452Z,52.86
2018-08-21T10:07:51.941Z,52.86
2018-08-21T10:09:01.418Z,52.76
2018-08-21T10:10:10.354Z,52.56
2018-08-21T10:11:20.252Z,52.66
2018-08-21T10:12:30.072Z,52.66
2018-08-21T10:13:39.442Z,52.56
2018-08-21T10:14:48.565Z,52.86
2018-08-21T10:15:57.749Z,52.56
2018-08-21T10:17:06.596Z,52.47
2018-08-21T10:18:16.158Z,52.86
2018-08-21T10:19:25.705Z,52.56
2018-08-21T10:20:35.216Z,52.95
2018-08-21T10:21:44.473Z,52.95
2018-08-21T10:22:53.657Z,52.95
2018-08-21T10:24:03.184Z,53.05
2018-08-21T10:25:12.627Z,52.47
2018-08-21T10:26:22.239Z,52.37
2018-08-21T10:27:31.746Z,52.28
2018-08-21T10:28:41.180Z,52.37
2018-08-21T10:29:50.871Z,52.37
2018-08-21T10:31:00.217Z,52.18
2018-08-21T10:32:09.521Z,52.37
2018-08-21T10:33:19.345Z,52.47
2018-08-21T10:34:28.495Z,52.47
2018-08-21T10:35:38.081Z,52.28
2018-08-21T10:36:47.969Z,52.37
2018-08-21T10:37:57.774Z,52.28
2018-08-21T10:39:07.382Z,52.37
2018-08-21T10:40:16.630Z,52.37
2018-08-21T10:41:26.310Z,52.28
2018-08-21T10:42:35.658Z,52.18
2018-08-21T10:43:44.681Z,51.89
2018-08-21T10:44:54.060Z,52.18
2018-08-21T10:46:03.997Z,52.08
2018-08-21T10:47:13.120Z,51.89
2018-08-21T10:48:22.632Z,52.18
2018-08-21T10:49:31.893Z,52.08
2018-08-21T10:50:40.972Z,52.08
2018-08-21T10:51:50.634Z,52.28
2018-08-21T10:53:00.395Z,52.18
2018-08-21T10:54:10.018Z,51.79
2018-08-21T10:55:19.058Z,51.69
2018-08-21T10:56:28.488Z,51.98
2018-08-21T10:57:37.859Z,51.98
2018-08-21T10:58:47.284Z,52.18
2018-08-21T10:59:56.441Z,52.08
2018-08-21T11:01:05.531Z,52.18
2018-08-21T11:02:14.941Z,52.37
2018-08-21T11:03:24.488Z,52.08
2018-08-21T11:04:34.220Z,51.98
2018-08-21T11:05:43.833Z,52.08
2018-08-21T11:06:53.601Z,52.28
2018-08-21T11:08:02.824Z,52.08
2018-08-21T11:09:12.076Z,52.08
2018-08-21T11:10:21.672Z,52.08
2018-08-21T11:11:31.379Z,52.08
2018-08-21T11:12:40.148Z,52.37
2018-08-21T11:13:50.053Z,51.98
2018-08-21T11:15:00.238Z,51.79
2018-08-21T11:16:09.510Z,51.89
2018-08-21T11:17:18.768Z,51.89
2018-08-21T11:18:28.587Z,51.5
2018-08-21T11:19:38.229Z,51.5
2018-08-21T11:20:48.287Z,51.69
2018-08-21T11:21:57.930Z,51.59
2018-08-21T11:23:08.041Z,51.69
2018-08-21T11:24:17.243Z,51.59
2018-08-21T11:25:26.721Z,51.5
2018-08-21T11:26:36.257Z,51.5
2018-08-21T11:27:45.859Z,51.5
2018-08-21T11:28:55.618Z,51.79
2018-08-21T11:30:04.875Z,51.59
2018-08-21T11:31:14.077Z,51.21
2018-08-21T11:32:24.038Z,51.69
2018-08-21T11:33:33.509Z,51.4
2018-08-21T11:34:43.038Z,51.31
2018-08-21T11:35:52.604Z,51.59
2018-08-21T11:37:01.813Z,51.31
2018-08-21T11:38:10.725Z,51.5
2018-08-21T11:39:20.437Z,51.5
2018-08-21T11:40:29.894Z,51.59
2018-08-21T11:41:39.075Z,51.11
2018-08-21T11:42:48.515Z,51.01
2018-08-21T11:43:57.983Z,51.11
2018-08-21T11:45:07.604Z,51.21
2018-08-21T11:46:16.557Z,51.21
2018-08-21T11:47:26.019Z,51.31
2018-08-21T11:48:35.281Z,51.21
2018-08-21T11:49:44.669Z,51.21
2018-08-21T11:50:53.935Z,51.31
2018-08-21T11:52:03.269Z,51.5
2018-08-21T11:53:12.991Z,51.21
2018-08-21T11:54:22.687Z,51.5
2018-08-21T11:55:31.648Z,51.31
2018-08-21T11:56:40.933Z,51.31
2018-08-21T11:57:50.373Z,51.59
2018-08-21T11:58:59.548Z,51.59
2018-08-21T12:00:08.732Z,51.59
2018-08-21T12:01:18.216Z,51.5
2018-08-21T12:02:27.589Z,51.4
2018-08-21T12:03:37.676Z,51.5
2018-08-21T12:04:47.041Z,51.5
2018-08-21T12:05:56.402Z,51.4
2018-08-21T12:07:05.781Z,51.5
2018-08-21T12:08:14.838Z,51.5
2018-08-21T12:09:24.401Z,51.69
2018-08-21T12:10:33.784Z,51.5
2018-08-21T12:11:43.405Z,51.59
2018-08-21T12:12:52.813Z,51.59
2018-08-21T12:14:02.388Z,51.31
2018-08-21T12:15:11.738Z,51.4
2018-08-21T12:16:21.133Z,51.5
2018-08-21T12:17:30.195Z,51.4
2018-08-21T12:18:39.833Z,51.59
2018-08-21T12:19:49.915Z,51.4
2018-08-21T12:20:58.791Z,51.4
2018-08-21T12:22:08.122Z,51.31
2018-08-21T12:23:17.872Z,51.4
2018-08-21T12:24:27.544Z,51.31
2018-08-21T12:25:36.361Z,51.21
2018-08-21T12:26:45.672Z,51.21
2018-08-21T12:27:55.825Z,50.82
2018-08-21T12:29:05.226Z,50.82
2018-08-21T12:30:14.339Z,51.01
2018-08-21T12:31:23.739Z,50.92
2018-08-21T12:32:33.341Z,51.01
2018-08-21T12:33:43.023Z,50.92
2018-08-21T12:34:52.967Z,51.01
2018-08-21T12:36:02.939Z,50.82
2018-08-21T12:37:12.567Z,51.01
2018-08-21T12:38:22.042Z,51.01
2018-08-21T12:39:31.577Z,51.01
2018-08-21T12:40:41.277Z,51.01
2018-08-21T12:41:50.884Z,51.21
2018-08-21T12:43:00.264Z,50.92
2018-08-21T12:44:09.906Z,50.92
2018-08-21T12:45:19.756Z,51.01
2018-08-21T12:46:29.129Z,51.31
2018-08-21T12:47:39.162Z,51.11
2018-08-21T12:48:49.169Z,51.04
2018-08-21T12:49:58.631Z,51.01
2018-08-21T12:51:07.478Z,50.92
2018-08-21T12:52:16.600Z,50.46
2018-08-21T12:53:26.443Z,50.62
2018-08-21T12:54:36.544Z,50.62
2018-08-21T12:55:45.904Z,50.92
2018-08-21T12:56:55.544Z,50.92
2018-08-21T12:58:05.093Z,51.11
2018-08-21T12:59:14.785Z,51.21
2018-08-21T13:00:24.230Z,51.01
2018-08-21T13:01:34.274Z,51.04
2018-08-21T13:02:43.386Z,50.43
2018-08-21T13:03:52.716Z,50.94
2018-08-21T13:05:02.064Z,50.94
2018-08-21T13:06:11.227Z,50.84
2018-08-21T13:07:20.700Z,50.92
2018-08-21T13:08:30.228Z,50.94
2018-08-21T13:09:39.581Z,50.84
2018-08-21T13:10:48.669Z,50.82
2018-08-21T13:11:58.579Z,50.43
2018-08-21T13:13:07.620Z,50.53
2018-08-21T13:14:17.325Z,50.65
2018-08-21T13:15:26.925Z,50.53
2018-08-21T13:16:36.320Z,50.36
2018-08-21T13:17:46.039Z,50.56
2018-08-21T13:18:55.347Z,50.53
2018-08-21T13:20:04.627Z,50.56
2018-08-21T13:21:13.904Z,50.43
2018-08-21T13:22:23.700Z,50.56
2018-08-21T13:23:32.996Z,50.72
2018-08-21T13:24:42.658Z,50.62
2018-08-21T13:25:51.892Z,50.65
2018-08-21T13:27:01.223Z,50.43
2018-08-21T13:28:10.163Z,50.43
2018-08-21T13:29:19.387Z,50.65
2018-08-21T13:30:29.240Z,50.34
2018-08-21T13:31:38.460Z,50.46
2018-08-21T13:32:47.904Z,50.65
2018-08-21T13:33:57.196Z,50.46
2018-08-21T13:35:06.496Z,50.46
2018-08-21T13:36:16.374Z,50.53
2018-08-21T13:37:26.166Z,50.62
2018-08-21T13:38:35.282Z,50.43
2018-08-21T13:39:44.402Z,50.65
2018-08-21T13:40:54.164Z,50.36
2018-08-21T13:42:03.736Z,50.34
2018-08-21T13:43:13.337Z,50.65
2018-08-21T13:44:22.695Z,50.56
2018-08-21T13:45:32.328Z,50.36
2018-08-21T13:46:42.430Z,50.65
2018-08-21T13:47:51.789Z,50.26
2018-08-21T13:49:01.347Z,50.46
2018-08-21T13:50:10.644Z,50.26
2018-08-21T13:51:19.935Z,50.62
2018-08-21T13:52:29.715Z,50.46
2018-08-21T13:53:39.391Z,50.46
2018-08-21T13:54:49.044Z,50.24
2018-08-21T13:55:58.340Z,50.46
2018-08-21T13:57:07.703Z,50.26
2018-08-21T13:58:17.257Z,50.07
2018-08-21T13:59:26.587Z,50.26
2018-08-21T14:00:35.755Z,50.24
2018-08-21T14:01:45.160Z,50.26
2018-08-21T14:02:54.815Z,50.36
2018-08-21T14:04:04.256Z,50.36
2018-08-21T14:05:13.876Z,50.26
2018-08-21T14:06:22.847Z,50.36
2018-08-21T14:07:32.167Z,50.36
2018-08-21T14:08:42.040Z,50.36
2018-08-21T14:09:52.021Z,50.36
2018-08-21T14:11:01.102Z,50.46
2018-08-21T14:12:11.072Z,50.46
2018-08-21T14:13:20.696Z,50.46
2018-08-21T14:14:30.439Z,50.46
2018-08-21T14:15:40.111Z,50.46
2018-08-21T14:16:49.707Z,50.46
2018-08-21T14:17:59.546Z,50.46
2018-08-21T14:19:09.122Z,50.46
2018-08-21T14:20:19.180Z,50.36
2018-08-21T14:21:28.137Z,50.36
2018-08-21T14:22:38.049Z,50.14
2018-08-21T14:23:47.587Z,50.26
2018-08-21T14:24:56.635Z,50.36
2018-08-21T14:26:06.741Z,50.46
2018-08-21T14:27:15.985Z,49.97
2018-08-21T14:28:25.572Z,50.53
2018-08-21T14:29:34.917Z,50.16
2018-08-21T14:30:44.518Z,49.97
2018-08-21T14:31:54.333Z,50.16
2018-08-21T14:33:03.820Z,49.68
2018-08-21T14:34:13.982Z,49.97
2018-08-21T14:35:23.713Z,49.97
2018-08-21T14:36:32.968Z,50.07
2018-08-21T14:37:42.304Z,50.16
2018-08-21T14:38:51.665Z,50.16
2018-08-21T14:40:01.973Z,50.26
2018-08-21T14:41:10.756Z,50.26
2018-08-21T14:42:19.852Z,50.16
2018-08-21T14:43:30.045Z,50.26
2018-08-21T14:44:39.365Z,50.16
2018-08-21T14:45:48.443Z,50.36
2018-08-21T14:46:57.581Z,50.26
2018-08-21T14:48:07.308Z,49.87
2018-08-21T14:49:17.105Z,50.16
2018-08-21T14:50:27.098Z,50.07
2018-08-21T14:51:36.438Z,50.07
2018-08-21T14:52:46.375Z,49.58
2018-08-21T14:53:56.628Z,49.68
2018-08-21T14:55:06.570Z,49.68
2018-08-21T14:56:15.907Z,49.77